Time;durP1;ratioP1;P1;durP2;ratioP2;P2;SDS_P1;SDS_P2;PMS_P1;PMS_P2;Temp;Humidity;BMP_temperature;BMP_pressure;BME280_temperature;BME280_humidity;BME280_pressure;Samples;Min_cycle;Max_cycle;Signal;HPM_P1;HPM_P2
2022/03/03 00:01:49;;;;;;;17.90;11.13;;;;;;;-2.06;100.00;90524.34;5032871;28;20048;-63
2022/03/03 00:04:14;;;;;;;20.38;10.95;;;;;;;-2.04;100.00;90527.50;5032998;28;20048;-65
2022/03/03 00:06:40;;;;;;;16.55;10.88;;;;;;;-2.07;100.00;90527.97;5032936;28;20041;-64
2022/03/03 00:09:06;;;;;;;18.00;10.57;;;;;;;-2.08;100.00;90529.00;5032675;28;20514;-64
2022/03/03 00:11:32;;;;;;;18.88;11.10;;;;;;;-2.07;100.00;90527.97;5032599;28;20050;-65
2022/03/03 00:13:58;;;;;;;19.08;12.30;;;;;;;-2.15;100.00;90532.59;5032250;28;20041;-65
2022/03/03 00:16:26;;;;;;;20.23;12.90;;;;;;;-2.19;100.00;90525.50;5032352;28;20114;-65
2022/03/03 00:18:52;;;;;;;23.10;11.90;;;;;;;-2.17;100.00;90529.44;5014711;28;20176;-65
2022/03/03 00:21:18;;;;;;;23.42;12.88;;;;;;;-2.23;100.00;90525.19;5032570;28;20123;-64
2022/03/03 00:23:44;;;;;;;21.33;12.38;;;;;;;-2.28;100.00;90522.53;5032555;28;20030;-64
2022/03/03 00:26:10;;;;;;;21.00;12.38;;;;;;;-2.18;100.00;90527.88;5032482;28;20045;-65
2022/03/03 00:28:35;;;;;;;19.50;11.68;;;;;;;-2.12;100.00;90529.50;5032300;28;20125;-65
2022/03/03 00:31:01;;;;;;;22.42;12.95;;;;;;;-2.03;100.00;90516.06;5032298;28;20056;-64
2022/03/03 00:33:26;;;;;;;20.50;12.18;;;;;;;-1.99;100.00;90514.53;5032342;28;20419;-65
2022/03/03 00:35:52;;;;;;;19.50;11.75;;;;;;;-1.88;100.00;90516.22;5032283;28;20430;-65
2022/03/03 00:38:17;;;;;;;14.48;9.70;;;;;;;-1.87;100.00;90515.97;5032223;28;20029;-64
2022/03/03 00:40:43;;;;;;;15.73;9.43;;;;;;;-1.82;100.00;90504.81;5032235;28;20392;-64
2022/03/03 00:43:09;;;;;;;14.82;8.18;;;;;;;-1.78;100.00;90513.72;5032173;28;20092;-65
2022/03/03 00:45:36;;;;;;;13.70;9.27;;;;;;;-1.71;100.00;90516.94;5032093;28;20084;-65
2022/03/03 00:48:02;;;;;;;14.38;8.95;;;;;;;-1.74;100.00;90512.19;5031893;28;20040;-64
2022/03/03 00:50:28;;;;;;;12.55;8.57;;;;;;;-1.78;100.00;90508.50;5031948;28;20057;-64
2022/03/03 00:52:54;;;;;;;16.88;9.90;;;;;;;-1.87;100.00;90502.16;5031974;28;20553;-64
2022/03/03 00:55:20;;;;;;;15.80;9.60;;;;;;;-1.95;100.00;90502.56;5031897;28;20423;-64
2022/03/03 00:57:45;;;;;;;16.95;10.43;;;;;;;-1.95;100.00;90505.19;5031820;28;20029;-64
2022/03/03 01:00:11;;;;;;;14.75;9.38;;;;;;;-1.93;100.00;90490.88;5031847;28;20428;-64
2022/03/03 01:02:36;;;;;;;16.17;8.93;;;;;;;-1.90;100.00;90500.00;5031800;28;20491;-64
2022/03/03 01:05:04;;;;;;;14.38;10.02;;;;;;;-2.04;100.00;90498.84;5031975;28;20503;-65
2022/03/03 01:07:29;;;;;;;17.02;9.90;;;;;;;-2.09;100.00;90485.75;5031697;28;20042;-64
2022/03/03 01:09:55;;;;;;;15.27;9.40;;;;;;;-2.00;100.00;90492.09;5031528;28;20178;-64
2022/03/03 01:12:20;;;;;;;18.27;10.80;;;;;;;-1.95;100.00;90489.53;5031418;28;20099;-64
2022/03/03 01:14:47;;;;;;;15.80;10.88;;;;;;;-2.01;100.00;90485.31;5031816;28;20029;-65
2022/03/03 01:17:13;;;;;;;16.48;10.70;;;;;;;-1.98;100.00;90488.22;5031529;28;20045;-65
2022/03/03 01:19:40;;;;;;;18.25;10.38;;;;;;;-1.98;100.00;90490.03;5031328;28;20045;-65
2022/03/03 01:22:06;;;;;;;15.43;9.55;;;;;;;-2.05;100.00;90497.25;5031408;28;20040;-64
2022/03/03 01:24:31;;;;;;;15.23;10.52;;;;;;;-2.13;100.00;90499.25;5031369;28;20037;-64
2022/03/03 01:26:57;;;;;;;16.75;11.07;;;;;;;-2.14;100.00;90489.88;5013537;28;20525;-64
2022/03/03 01:29:23;;;;;;;18.05;11.43;;;;;;;-2.24;100.00;90487.13;5031174;28;20030;-65
2022/03/03 01:31:48;;;;;;;19.65;11.98;;;;;;;-2.29;100.00;90475.88;5031384;28;20049;-65
2022/03/03 01:34:14;;;;;;;18.77;11.00;;;;;;;-2.20;100.00;90488.25;5031305;28;20041;-64
2022/03/03 01:36:39;;;;;;;22.05;12.30;;;;;;;-2.20;100.00;90483.03;5031290;28;20473;-64
2022/03/03 01:39:05;;;;;;;17.38;10.60;;;;;;;-2.14;100.00;90486.47;5031129;28;20095;-64
2022/03/03 01:41:32;;;;;;;14.93;10.10;;;;;;;-2.15;100.00;90479.69;5031215;28;20033;-64
2022/03/03 01:43:58;;;;;;;16.02;10.32;;;;;;;-2.21;100.00;90471.03;5031227;28;20136;-64
2022/03/03 01:46:23;;;;;;;17.30;10.82;;;;;;;-2.24;100.00;90471.50;5031205;28;20515;-64
2022/03/03 01:48:49;;;;;;;15.43;10.07;;;;;;;-2.36;100.00;90470.88;5030959;28;20476;-64
2022/03/03 01:51:15;;;;;;;17.60;10.30;;;;;;;-2.37;100.00;90474.47;5031324;28;20042;-64
2022/03/03 01:53:40;;;;;;;14.98;9.77;;;;;;;-2.39;100.00;90479.13;5031008;28;20470;-65
2022/03/03 01:56:07;;;;;;;19.45;10.68;;;;;;;-2.52;100.00;90464.69;5030956;28;20069;-63
2022/03/03 01:58:33;;;;;;;14.63;10.18;;;;;;;-2.45;100.00;90477.50;5029593;28;20124;-64
2022/03/03 02:00:59;;;;;;;14.90;9.65;;;;;;;-2.44;100.00;90471.28;5031300;28;20492;-65
2022/03/03 02:03:24;;;;;;;15.48;9.02;;;;;;;-2.43;100.00;90471.03;5030961;28;20477;-64
2022/03/03 02:05:50;;;;;;;14.68;9.82;;;;;;;-2.43;100.00;90465.81;5030890;28;20041;-64
2022/03/03 02:08:15;;;;;;;15.40;10.27;;;;;;;-2.39;100.00;90467.94;5031138;28;20095;-64
2022/03/03 02:10:41;;;;;;;18.17;10.65;;;;;;;-2.41;100.00;90478.59;5030615;28;20124;-66
2022/03/03 02:13:07;;;;;;;17.08;10.48;;;;;;;-2.42;100.00;90475.19;5030902;28;20095;-65
2022/03/03 02:15:32;;;;;;;16.73;10.25;;;;;;;-2.48;100.00;90476.19;5030858;28;20029;-64
2022/03/03 02:17:58;;;;;;;17.75;10.98;;;;;;;-2.45;100.00;90482.72;5030754;28;20048;-65
2022/03/03 02:20:28;;;;;;;17.23;11.13;;;;;;;-2.52;100.00;90480.31;5030747;28;20041;-64
2022/03/03 02:22:55;;;;;;;17.67;11.10;;;;;;;-2.54;100.00;90471.91;5030580;28;20128;-65
2022/03/03 02:25:22;;;;;;;18.98;10.82;;;;;;;-2.54;100.00;90471.13;5030664;28;20497;-65
2022/03/03 02:27:48;;;;;;;17.50;11.55;;;;;;;-2.50;100.00;90472.25;5030548;28;20095;-65
2022/03/03 02:30:16;;;;;;;18.45;11.68;;;;;;;-2.55;100.00;90456.53;5030576;28;20492;-65
2022/03/03 02:32:42;;;;;;;18.70;12.20;;;;;;;-2.42;100.00;90464.78;5030912;28;20096;-65
2022/03/03 02:35:08;;;;;;;18.08;11.60;;;;;;;-2.47;100.00;90462.13;5030935;28;20047;-64
2022/03/03 02:37:35;;;;;;;21.75;12.57;;;;;;;-2.32;100.00;90469.34;5012894;28;20041;-65
2022/03/03 02:40:01;;;;;;;20.33;11.77;;;;;;;-2.26;100.00;90468.34;5034502;28;20096;-64
2022/03/03 02:42:27;;;;;;;20.52;13.07;;;;;;;-2.24;100.00;90468.91;5034492;28;20041;-64
2022/03/03 02:44:52;;;;;;;18.35;11.95;;;;;;;-2.28;100.00;90475.63;5016661;28;20562;-65
2022/03/03 02:47:18;;;;;;;20.08;12.63;;;;;;;-2.22;100.00;90474.66;5034693;28;20144;-65
2022/03/03 02:49:43;;;;;;;22.25;12.20;;;;;;;-2.31;100.00;90452.69;5034178;28;20068;-65
2022/03/03 02:52:08;;;;;;;18.52;12.50;;;;;;;-2.34;100.00;90460.97;5034214;28;20037;-65
2022/03/03 02:54:34;;;;;;;20.40;12.95;;;;;;;-2.42;100.00;90437.94;5034249;28;20034;-64
2022/03/03 02:59:44;;;;;;;17.48;10.38;;;;;;;-1.98;100.00;90467.38;5034387;28;20041;-65
2022/03/03 03:02:09;;;;;;;17.33;10.15;;;;;;;-1.90;100.00;90471.34;5034105;28;20041;-66
2022/03/03 03:04:34;;;;;;;19.52;12.00;;;;;;;-1.94;100.00;90467.66;5170652;22;20483;-73
2022/03/03 03:07:00;;;;;;;19.67;11.77;;;;;;;-1.95;100.00;90466.09;5033493;28;20047;-66
2022/03/03 03:09:25;;;;;;;17.60;10.52;;;;;;;-1.85;100.00;90468.81;5034160;28;20022;-66
2022/03/03 03:11:51;;;;;;;19.42;10.75;;;;;;;-1.88;100.00;90464.09;5034198;28;20482;-66
2022/03/03 03:14:16;;;;;;;17.73;11.07;;;;;;;-1.86;100.00;90462.03;5034065;28;20091;-66
2022/03/03 03:16:42;;;;;;;21.02;12.30;;;;;;;-1.87;100.00;90471.66;5034154;28;20029;-66
2022/03/03 03:19:09;;;;;;;24.30;14.20;;;;;;;-1.92;100.00;90469.00;5034059;28;20036;-66
2022/03/03 03:21:34;;;;;;;21.52;11.93;;;;;;;-1.95;100.00;90460.88;5033994;28;20075;-66
2022/03/03 03:24:00;;;;;;;20.38;12.25;;;;;;;-1.93;100.00;90471.84;5034016;28;20542;-66
2022/03/03 03:26:25;;;;;;;19.15;11.35;;;;;;;-1.86;100.00;90468.03;5033769;28;20095;-66
2022/03/03 03:28:50;;;;;;;22.70;12.75;;;;;;;-1.84;100.00;90473.00;5016172;28;20040;-66
2022/03/03 03:31:16;;;;;;;16.08;10.55;;;;;;;-1.78;100.00;90479.03;5034014;28;20030;-66
2022/03/03 03:33:41;;;;;;;20.25;12.88;;;;;;;-1.88;100.00;90475.31;5033771;28;20537;-66
2022/03/03 03:36:07;;;;;;;25.02;13.13;;;;;;;-1.97;100.00;90471.53;5033652;28;20033;-66
2022/03/03 03:38:32;;;;;;;19.35;12.68;;;;;;;-1.86;100.00;90480.28;5033647;28;20113;-66
2022/03/03 03:40:58;;;;;;;23.20;13.27;;;;;;;-1.87;100.00;90481.31;5033614;28;20033;-66
2022/03/03 03:43:23;;;;;;;23.65;13.32;;;;;;;-1.91;100.00;90473.16;5033595;28;20087;-66
2022/03/03 03:45:48;;;;;;;23.45;13.20;;;;;;;-1.98;100.00;90475.19;5033757;28;20029;-66
2022/03/03 03:48:15;;;;;;;23.45;13.77;;;;;;;-2.03;100.00;90477.75;5033474;28;20025;-66
2022/03/03 03:50:40;;;;;;;21.30;13.23;;;;;;;-2.12;100.00;90479.19;5033286;28;20139;-66
2022/03/03 03:53:06;;;;;;;21.67;12.57;;;;;;;-2.05;100.00;90479.00;5033373;28;20077;-66
2022/03/03 03:55:31;;;;;;;22.27;13.75;;;;;;;-2.15;100.00;90474.47;5033328;28;20025;-66
2022/03/03 03:57:57;;;;;;;25.88;14.07;;;;;;;-2.17;100.00;90473.94;5033305;28;20056;-66
2022/03/03 04:00:22;;;;;;;22.15;13.88;;;;;;;-2.15;100.00;90472.66;5033245;28;20101;-66
2022/03/03 04:02:48;;;;;;;22.35;13.45;;;;;;;-2.15;100.00;90474.47;5033231;28;20495;-66
2022/03/03 04:05:13;;;;;;;21.35;13.55;;;;;;;-2.18;100.00;90475.75;5032926;28;20536;-66
2022/03/03 04:07:42;;;;;;;27.75;15.10;;;;;;;-2.25;100.00;90469.16;5033133;28;20075;-66
2022/03/03 04:10:09;;;;;;;27.60;14.85;;;;;;;-2.33;100.00;90472.97;5015128;28;20484;-66
2022/03/03 04:12:34;;;;;;;28.95;16.27;;;;;;;-2.48;100.00;90447.53;5032988;28;20029;-66
2022/03/03 04:14:59;;;;;;;29.88;16.65;;;;;;;-2.31;100.00;90465.69;5032854;28;20112;-66
2022/03/03 04:17:25;;;;;;;29.33;15.30;;;;;;;-2.37;100.00;90474.47;5032921;28;20022;-66
2022/03/03 04:19:50;;;;;;;24.48;14.77;;;;;;;-2.36;100.00;90477.88;5032765;28;20471;-66
2022/03/03 04:22:16;;;;;;;27.33;15.10;;;;;;;-2.33;100.00;90469.59;5032771;28;20021;-66
2022/03/03 04:24:41;;;;;;;22.35;13.07;;;;;;;-2.28;100.00;90469.63;5032689;28;20029;-66
2022/03/03 04:27:07;;;;;;;22.10;13.57;;;;;;;-2.27;100.00;90469.38;5032648;28;20030;-66
2022/03/03 04:29:32;;;;;;;20.02;12.38;;;;;;;-2.20;100.00;90470.00;5032685;28;20442;-66
2022/03/03 04:31:58;;;;;;;23.60;13.98;;;;;;;-2.28;100.00;90467.81;5032589;28;20115;-66
2022/03/03 04:34:25;;;;;;;24.95;14.70;;;;;;;-2.28;100.00;90462.59;5032464;28;20052;-66
2022/03/03 04:36:50;;;;;;;24.83;14.80;;;;;;;-2.23;100.00;90473.06;5032588;28;20028;-66
2022/03/03 04:39:16;;;;;;;23.15;13.77;;;;;;;-2.24;100.00;90458.47;5032414;28;20033;-66
2022/03/03 04:41:41;;;;;;;24.67;15.77;;;;;;;-2.24;100.00;90457.69;5032460;28;20029;-66
2022/03/03 04:44:07;;;;;;;24.25;14.25;;;;;;;-2.15;100.00;90461.44;5032334;28;20106;-67
2022/03/03 04:46:33;;;;;;;29.25;16.92;;;;;;;-2.20;100.00;90454.38;5032294;28;20521;-66
2022/03/03 04:48:59;;;;;;;30.73;17.92;;;;;;;-2.20;100.00;90456.97;5032306;28;20115;-66
2022/03/03 04:51:26;;;;;;;28.80;17.30;;;;;;;-2.17;100.00;90447.88;5032212;28;20025;-66
2022/03/03 04:53:51;;;;;;;46.53;27.75;;;;;;;-2.14;100.00;90453.38;5032215;28;20034;-66
2022/03/03 04:56:17;;;;;;;30.10;19.67;;;;;;;-2.19;100.00;90463.75;5032046;28;20026;-66
2022/03/03 04:58:44;;;;;;;25.10;15.82;;;;;;;-2.22;100.00;90453.81;5032097;28;20083;-66
2022/03/03 05:01:10;;;;;;;24.85;15.60;;;;;;;-2.19;100.00;90452.56;5031479;28;20406;-66
2022/03/03 05:03:36;;;;;;;28.48;16.15;;;;;;;-2.06;100.00;90446.94;5031992;28;20040;-65
2022/03/03 05:06:01;;;;;;;37.45;18.17;;;;;;;-2.03;100.00;90435.28;5031693;28;20076;-66
2022/03/03 05:08:27;;;;;;;116.43;42.72;;;;;;;-1.94;100.00;90439.00;5031907;28;20021;-66
2022/03/03 05:10:52;;;;;;;63.28;31.40;;;;;;;-1.94;100.00;90444.19;5031748;28;20036;-66
2022/03/03 05:13:17;;;;;;;51.25;26.80;;;;;;;-1.93;100.00;90445.78;5031866;28;20031;-66
2022/03/03 05:15:43;;;;;;;33.72;21.48;;;;;;;-1.98;100.00;90448.34;5031759;28;20509;-66
2022/03/03 05:18:08;;;;;;;39.97;20.67;;;;;;;-1.96;100.00;90446.28;5014007;28;20025;-66
2022/03/03 05:20:35;;;;;;;23.10;14.25;;;;;;;-2.07;100.00;90441.97;5031540;28;20034;-66
2022/03/03 05:23:00;;;;;;;21.13;12.65;;;;;;;-2.02;100.00;90452.47;5031648;28;20033;-66
2022/03/03 05:25:26;;;;;;;21.70;13.15;;;;;;;-2.03;100.00;90451.69;5013713;28;20032;-66
2022/03/03 05:27:51;;;;;;;28.98;16.38;;;;;;;-1.98;100.00;90454.34;5031487;28;20029;-66
2022/03/03 05:30:17;;;;;;;27.70;17.30;;;;;;;-1.94;100.00;90452.03;5031467;28;20052;-66
2022/03/03 05:32:43;;;;;;;29.33;16.00;;;;;;;-1.88;100.00;90441.41;5031428;28;20029;-66
2022/03/03 05:35:09;;;;;;;25.73;15.48;;;;;;;-1.74;100.00;90444.41;5031598;28;20120;-66
2022/03/03 05:37:35;;;;;;;28.48;17.17;;;;;;;-1.66;100.00;90446.56;5013619;28;20156;-66
2022/03/03 05:40:01;;;;;;;29.08;15.90;;;;;;;-1.59;100.00;90452.34;5031263;28;20099;-66
2022/03/03 05:42:26;;;;;;;19.92;13.45;;;;;;;-1.53;100.00;90450.59;5030762;28;20048;-66
2022/03/03 05:44:52;;;;;;;18.15;13.00;;;;;;;-1.45;100.00;90441.53;5031193;28;20021;-66
2022/03/03 05:47:18;;;;;;;20.95;12.90;;;;;;;-1.45;100.00;90444.13;5031268;28;20403;-66
2022/03/03 05:49:45;;;;;;;22.35;12.35;;;;;;;-1.49;100.00;90437.84;5031532;28;20087;-66
2022/03/03 05:52:12;;;;;;;21.15;13.73;;;;;;;-1.59;100.00;90452.34;5030947;28;20563;-66
2022/03/03 05:54:38;;;;;;;22.90;13.77;;;;;;;-1.63;100.00;90448.69;5031060;28;20029;-66
2022/03/03 05:57:10;;;;;;;23.52;15.15;;;;;;;-1.48;100.00;90452.44;5031048;28;20084;-66
2022/03/03 05:59:36;;;;;;;19.33;13.05;;;;;;;-1.52;100.00;90452.97;5031050;28;20104;-66
2022/03/03 06:02:02;;;;;;;22.55;14.43;;;;;;;-1.52;100.00;90446.94;5031399;28;20398;-65
2022/03/03 06:04:29;;;;;;;26.92;15.57;;;;;;;-1.65;100.00;90457.78;5030895;28;20033;-66
2022/03/03 06:07:07;;;;;;;25.23;14.52;;;;;;;-1.74;100.00;90460.03;4991617;28;20042;-66
2022/03/03 06:09:34;;;;;;;23.63;15.07;;;;;;;-1.59;100.00;90464.59;4991727;28;20481;-66
2022/03/03 06:12:11;;;;;;;23.80;15.38;;;;;;;-1.50;100.00;90463.13;4991599;28;20044;-66
2022/03/03 06:14:38;;;;;;;25.20;16.08;;;;;;;-1.57;100.00;90459.97;4995140;28;20026;-66
2022/03/03 06:17:04;;;;;;;26.92;17.63;;;;;;;-1.57;100.00;90460.75;4995584;28;20078;-66
2022/03/03 06:19:33;;;;;;;31.27;15.73;;;;;;;-1.40;100.00;90467.66;4995513;28;20061;-66
2022/03/03 06:21:58;;;;;;;25.75;14.88;;;;;;;-1.40;100.00;90467.66;4996108;28;20041;-66
2022/03/03 06:24:24;;;;;;;27.50;15.20;;;;;;;-1.25;100.00;90459.97;4995483;28;20034;-66
2022/03/03 06:26:49;;;;;;;25.30;15.38;;;;;;;-1.11;100.00;90468.91;4995535;28;20421;-66
2022/03/03 06:29:15;;;;;;;28.83;17.25;;;;;;;-0.96;100.00;90466.41;4995461;28;20037;-66
2022/03/03 06:31:41;;;;;;;25.13;16.13;;;;;;;-1.07;100.00;90472.63;4995380;28;20404;-66
2022/03/03 06:34:07;;;;;;;32.88;19.73;;;;;;;-1.07;100.00;90469.22;4995222;28;20112;-66
2022/03/03 06:36:33;;;;;;;32.00;17.95;;;;;;;-1.05;100.00;90474.97;4995343;28;20030;-66
2022/03/03 06:38:59;;;;;;;29.80;17.90;;;;;;;-1.04;100.00;90472.13;4995303;28;20030;-65
2022/03/03 06:41:25;;;;;;;31.77;19.95;;;;;;;-0.98;100.00;90468.50;4995240;28;20031;-66
2022/03/03 06:43:52;;;;;;;22.15;14.57;;;;;;;-0.98;100.00;90486.78;4995397;28;20043;-66
2022/03/03 06:46:18;;;;;;;24.92;15.25;;;;;;;-0.98;100.00;90483.38;4995433;28;20030;-66
2022/03/03 06:48:45;;;;;;;25.02;15.40;;;;;;;-1.11;100.00;90479.34;4994949;28;20038;-66
2022/03/03 06:51:15;;;;;;;21.17;14.40;;;;;;;-1.03;100.00;90485.97;4995077;28;20514;-66
2022/03/03 06:53:44;;;;;;;26.33;16.08;;;;;;;-1.18;100.00;90486.63;4990135;28;20034;-66
2022/03/03 06:56:12;;;;;;;31.40;17.85;;;;;;;-1.07;100.00;90493.50;4993239;28;20066;-67
2022/03/03 06:58:39;;;;;;;34.33;20.40;;;;;;;-0.98;100.00;90489.38;4994004;28;20113;-66
2022/03/03 07:01:09;;;;;;;28.02;16.48;;;;;;;-1.01;100.00;90495.09;4994475;28;20419;-66
2022/03/03 07:03:36;;;;;;;25.20;15.95;;;;;;;-0.78;100.00;90506.25;4994454;28;20083;-66
2022/03/03 07:06:03;;;;;;;32.17;15.32;;;;;;;-0.52;100.00;90494.91;5006741;28;20045;-69
2022/03/03 07:08:29;;;;;;;26.50;16.30;;;;;;;-0.45;100.00;90487.66;5013553;28;20032;-67
2022/03/03 07:10:55;;;;;;;24.50;14.98;;;;;;;-0.26;100.00;90495.84;5013946;28;20037;-67
2022/03/03 07:13:21;;;;;;;25.85;16.25;;;;;;;0.12;100.00;90507.75;5014069;28;20510;-65
2022/03/03 07:15:52;;;;;;;43.30;25.77;;;;;;;0.34;100.00;90509.41;5013725;28;20040;-66
2022/03/03 07:18:20;;;;;;;29.05;16.85;;;;;;;0.65;100.00;90497.97;5013865;28;20113;-68
2022/03/03 07:21:01;;;;;;;37.42;21.23;;;;;;;1.41;96.82;90503.22;5013702;28;20026;-68
2022/03/03 07:23:53;;;;;;;125.90;70.15;;;;;;;1.72;94.55;90488.22;5012807;28;20029;-68
2022/03/03 07:26:20;;;;;;;45.95;30.17;;;;;;;2.01;89.96;90495.50;5013483;28;20041;-68
2022/03/03 07:28:52;;;;;;;54.22;32.85;;;;;;;1.96;88.90;90493.69;5013689;28;20108;-68
2022/03/03 07:31:22;;;;;;;52.95;32.63;;;;;;;2.47;84.70;90488.22;5013447;28;20037;-67
2022/03/03 07:33:52;;;;;;;62.92;38.75;;;;;;;2.99;80.52;90492.91;5013269;28;20503;-69
2022/03/03 07:36:24;;;;;;;43.92;24.63;;;;;;;2.99;77.92;90494.75;4995711;28;20442;-68
2022/03/03 07:38:57;;;;;;;27.88;18.42;;;;;;;2.80;78.42;90496.47;5045863;28;20111;-68
2022/03/03 07:41:25;;;;;;;;;;;;;;;2.91;77.21;90500.59;5047701;28;20111;-68
2022/03/03 07:43:51;;;;;;;52.58;27.25;;;;;;;2.16;79.30;90492.84;5051564;28;19966;-69
2022/03/03 07:46:16;;;;;;;47.85;26.58;;;;;;;1.75;83.78;90497.44;5033414;28;20120;-68
2022/03/03 07:48:45;;;;;;;34.10;19.05;;;;;;;1.67;83.83;90496.13;5051380;28;20100;-70
2022/03/03 07:51:11;;;;;;;21.40;14.98;;;;;;;1.21;87.32;90495.38;5042373;28;20512;-69
2022/03/03 07:53:37;;;;;;;23.90;16.70;;;;;;;0.85;90.46;90498.00;5026015;28;20064;-70
2022/03/03 07:56:04;;;;;;;32.53;19.25;;;;;;;1.04;95.12;90502.72;5024457;28;20061;-69
2022/03/03 07:58:33;;;;;;;26.55;16.20;;;;;;;1.03;92.06;90494.09;5021111;28;20120;-69
2022/03/03 08:01:00;;;;;;;25.38;15.77;;;;;;;0.64;96.51;90504.25;5004627;28;20083;-69
2022/03/03 08:03:27;;;;;;;34.63;16.42;;;;;;;0.54;99.25;90505.03;5023125;28;20022;-70
2022/03/03 08:05:56;;;;;;;27.88;18.45;;;;;;;0.70;100.00;90505.03;5029641;28;20041;-67
2022/03/03 08:08:24;;;;;;;25.55;18.00;;;;;;;1.11;96.28;90498.81;5036923;28;20491;-68
2022/03/03 08:10:55;;;;;;;18.85;12.82;;;;;;;1.11;94.69;90495.41;5035096;28;20405;-64
2022/03/03 08:13:24;;;;;;;21.35;14.48;;;;;;;1.12;94.97;90499.59;5051899;28;20394;-68
2022/03/03 08:15:52;;;;;;;28.20;14.82;;;;;;;1.07;95.67;90500.34;5051599;28;20558;-68
2022/03/03 08:18:18;;;;;;;19.77;12.50;;;;;;;1.18;93.76;90498.53;5052155;28;20032;-66
2022/03/03 08:20:43;;;;;;;23.50;14.15;;;;;;;1.60;93.65;90494.84;5052384;28;20558;-67
2022/03/03 08:23:09;;;;;;;41.53;19.05;;;;;;;1.46;92.87;90490.13;5050974;28;20033;-68
2022/03/03 08:25:35;;;;;;;25.85;15.65;;;;;;;1.43;91.28;90489.88;5051704;28;20055;-67
2022/03/03 08:28:02;;;;;;;25.83;15.07;;;;;;;1.56;90.70;90496.41;5033554;28;20040;-67
2022/03/03 08:30:29;;;;;;;21.63;14.38;;;;;;;1.46;89.66;90490.13;5051279;28;20032;-68
2022/03/03 08:33:18;;;;;;;33.05;15.65;;;;;;;1.34;90.46;90502.72;5051171;28;20025;-70
2022/03/03 08:35:59;;;;;;;29.15;16.77;;;;;;;1.13;92.04;90496.72;5050967;28;20112;-69
2022/03/03 08:38:45;;;;;;;28.40;16.73;;;;;;;1.63;89.10;90494.31;5051445;28;20460;-68
2022/03/03 08:41:13;;;;;;;24.02;14.27;;;;;;;1.31;90.15;90492.00;5051553;28;20039;-68
2022/03/03 08:43:40;;;;;;;19.02;12.82;;;;;;;1.09;88.61;90490.41;5051574;28;20061;-70
2022/03/03 08:46:07;;;;;;;36.33;21.13;;;;;;;1.15;91.71;90504.31;5051812;28;20063;-70
2022/03/03 08:48:33;;;;;;;34.50;20.35;;;;;;;0.90;92.88;90492.75;5051655;28;20044;-70
2022/03/03 08:51:00;;;;;;;46.55;25.30;;;;;;;1.34;91.71;90500.09;5051482;28;20596;-70
2022/03/03 08:53:26;;;;;;;21.48;13.30;;;;;;;1.26;88.48;90499.84;5051231;28;20029;-68
2022/03/03 08:55:53;;;;;;;25.65;14.07;;;;;;;1.37;89.07;90496.16;5051292;28;20047;-67
2022/03/03 08:58:20;;;;;;;22.13;14.18;;;;;;;1.30;90.48;90496.44;5051501;28;20035;-67
2022/03/03 09:00:48;;;;;;;21.55;15.35;;;;;;;1.61;91.26;90485.91;5051506;28;20039;-67
2022/03/03 09:03:15;;;;;;;29.02;15.00;;;;;;;1.89;88.33;90498.41;5052045;28;20025;-66
2022/03/03 09:05:41;;;;;;;22.00;12.07;;;;;;;1.64;87.84;90508.97;5035990;28;20080;-67
2022/03/03 09:08:07;;;;;;;19.20;11.73;;;;;;;1.80;86.79;90502.66;5030816;28;20025;-68
2022/03/03 09:10:33;;;;;;;24.65;14.02;;;;;;;1.76;85.85;90504.25;5031313;28;20116;-66
2022/03/03 09:13:00;;;;;;;26.10;16.15;;;;;;;2.06;83.62;90480.56;5031460;28;20061;-67
2022/03/03 09:15:26;;;;;;;19.73;12.15;;;;;;;2.15;83.88;90500.97;5042090;28;20490;-68
2022/03/03 09:17:51;;;;;;;17.67;12.35;;;;;;;1.90;83.16;90500.00;5032059;28;20112;-68
2022/03/03 09:20:17;;;;;;;18.38;12.00;;;;;;;2.03;83.60;90509.13;5049505;28;20037;-67
2022/03/03 09:22:44;;;;;;;22.23;12.98;;;;;;;2.11;84.35;90511.22;5049618;28;20021;-69
2022/03/03 09:25:10;;;;;;;27.40;16.60;;;;;;;2.07;86.21;90502.31;5032282;28;20025;-69
2022/03/03 09:27:36;;;;;;;28.40;18.15;;;;;;;2.09;83.75;90508.88;5038095;28;20120;-70
2022/03/03 09:30:06;;;;;;;27.73;17.23;;;;;;;2.13;85.27;90500.47;5050438;28;20025;-71
2022/03/03 09:32:32;;;;;;;35.47;20.80;;;;;;;2.40;82.51;90504.28;5047004;28;20106;-68
2022/03/03 09:34:57;;;;;;;29.63;19.27;;;;;;;2.94;81.92;90502.69;5032250;28;20516;-70
2022/03/03 09:37:23;;;;;;;29.55;18.90;;;;;;;3.69;75.79;90505.78;5028685;28;20025;-71
2022/03/03 09:39:50;;;;;;;23.40;16.50;;;;;;;4.06;73.93;90499.88;5020079;28;20506;-69
2022/03/03 09:42:16;;;;;;;27.42;17.23;;;;;;;4.40;71.62;90491.88;5021306;28;20503;-68
2022/03/03 09:44:42;;;;;;;21.55;13.95;;;;;;;4.23;69.58;90509.97;5019711;28;20522;-69
2022/03/03 09:47:11;;;;;;;19.73;14.73;;;;;;;3.72;71.40;90507.84;5027652;28;20029;-67
2022/03/03 09:49:37;;;;;;;23.92;17.40;;;;;;;3.90;70.07;90504.50;5021649;28;20026;-69
2022/03/03 09:52:14;;;;;;;25.02;16.60;;;;;;;4.04;69.83;90501.22;5044610;28;20127;-68
2022/03/03 09:54:41;;;;;;;18.63;13.05;;;;;;;4.02;70.46;90503.34;5049888;28;20033;-68
2022/03/03 09:57:07;;;;;;;17.20;11.98;;;;;;;3.89;69.99;90505.56;5026955;28;20426;-68
2022/03/03 09:59:32;;;;;;;23.70;14.88;;;;;;;3.87;69.48;90507.72;5049173;28;20025;-68
2022/03/03 10:02:05;;;;;;;46.33;27.70;;;;;;;4.09;70.63;90501.16;5049631;28;20409;-72
2022/03/03 10:04:31;;;;;;;24.98;17.70;;;;;;;3.98;68.35;90505.00;5045404;28;20086;-66
2022/03/03 10:07:02;;;;;;;22.42;15.40;;;;;;;4.16;66.96;90506.91;5026598;28;20064;-67
2022/03/03 10:09:28;;;;;;;23.42;15.60;;;;;;;3.75;70.04;90507.28;5044938;28;20029;-67
2022/03/03 10:12:04;;;;;;;29.65;18.05;;;;;;;3.57;70.53;90505.34;5048543;28;20028;-68
2022/03/03 10:14:37;;;;;;;28.33;18.55;;;;;;;3.42;70.97;90505.47;5045935;28;20032;-70
2022/03/03 10:17:04;;;;;;;20.50;12.87;;;;;;;4.56;67.06;90499.59;5044319;28;20065;-67
2022/03/03 10:19:29;;;;;;;20.30;13.20;;;;;;;4.30;65.51;90492.00;5049875;28;20287;-68
2022/03/03 10:21:55;;;;;;;32.58;19.77;;;;;;;4.58;67.03;90492.22;5049158;28;20021;-66
2022/03/03 10:24:27;;;;;;;26.38;19.20;;;;;;;3.54;70.05;90495.41;5041045;28;20103;-67
2022/03/03 10:27:02;;;;;;;23.42;17.77;;;;;;;3.50;71.48;90489.91;5031368;28;20186;-66
2022/03/03 10:29:29;;;;;;;21.30;13.57;;;;;;;3.57;71.50;90487.72;5049436;28;20021;-66
2022/03/03 10:31:56;;;;;;;25.67;16.50;;;;;;;4.05;72.85;90503.56;5044642;28;20029;-67
2022/03/03 10:34:25;;;;;;;22.55;15.38;;;;;;;4.85;69.36;90491.56;5049882;28;20432;-67
2022/03/03 10:37:02;;;;;;;27.52;17.77;;;;;;;5.10;68.02;90486.75;5049375;28;20154;-67
2022/03/03 10:39:48;;;;;;;32.67;21.85;;;;;;;4.59;67.16;90489.28;5049822;28;20094;-68
2022/03/03 10:42:17;;;;;;;27.27;17.73;;;;;;;4.66;65.54;90484.44;5046720;28;20024;-69
2022/03/03 10:44:44;;;;;;;23.95;16.42;;;;;;;4.40;66.74;90481.31;5041724;28;20035;-67
2022/03/03 10:47:14;;;;;;;23.25;15.13;;;;;;;4.02;67.91;90487.56;5041084;28;20483;-67
2022/03/03 10:49:44;;;;;;;33.65;16.60;;;;;;;4.15;67.64;90487.69;5046463;28;20471;-65
2022/03/03 10:52:15;;;;;;;21.33;13.73;;;;;;;3.76;67.68;90493.06;5049272;28;20029;-67
2022/03/03 10:55:01;;;;;;;20.98;14.70;;;;;;;3.64;67.50;90484.00;5049727;28;20104;-65
2022/03/03 10:57:44;;;;;;;31.52;21.33;;;;;;;4.03;68.45;90481.25;5047447;28;20033;-68
2022/03/03 11:00:13;;;;;;;25.70;17.13;;;;;;;3.74;68.66;90484.69;5052595;28;20082;-66
2022/03/03 11:02:42;;;;;;;22.10;15.77;;;;;;;3.27;68.29;90487.97;5054225;28;20078;-66
2022/03/03 11:05:10;;;;;;;29.67;18.98;;;;;;;3.53;70.32;90480.69;5053697;28;20091;-67
2022/03/03 11:07:38;;;;;;;28.73;17.15;;;;;;;3.37;70.02;90487.13;5053724;28;20559;-67
2022/03/03 11:10:04;;;;;;;21.95;14.75;;;;;;;3.63;70.41;90472.72;5036322;28;20123;-67
2022/03/03 11:12:30;;;;;;;24.17;15.27;;;;;;;3.63;68.59;90471.91;5032416;28;20037;-67
2022/03/03 11:14:57;;;;;;;18.60;12.57;;;;;;;3.61;68.23;90470.31;5033594;28;20033;-67
2022/03/03 11:17:23;;;;;;;20.42;14.52;;;;;;;3.74;68.67;90468.13;5033875;28;20084;-67